Time;durP1;ratioP1;P1;durP2;ratioP2;P2;SDS_P1;SDS_P2;PMS_P1;PMS_P2;Temp;Humidity;BMP_temperature;BMP_pressure;BME280_temperature;BME280_humidity;BME280_pressure;Samples;Min_cycle;Max_cycle;Signal;HPM_P1;HPM_P2
2022/09/26 00:01:14;;;;;;;8.00;3.77;;;11.90;99.90;;;;;;5008216;28;20034;-80
2022/09/26 00:03:43;;;;;;;8.23;4.00;;;11.90;99.90;;;;;;5001338;28;20049;-81
2022/09/26 00:06:09;;;;;;;6.45;3.55;;;11.90;99.90;;;;;;5026277;28;20116;-80
2022/09/26 00:08:35;;;;;;;7.93;3.97;;;11.90;99.90;;;;;;5023584;28;20044;-80
2022/09/26 00:11:06;;;;;;;6.60;3.53;;;11.90;99.90;;;;;;5021890;28;20206;-79
2022/09/26 00:13:33;;;;;;;8.00;3.70;;;11.90;99.90;;;;;;5008586;28;20060;-81
2022/09/26 00:15:59;;;;;;;;;;;12.00;99.90;;;;;;5023912;28;20033;-81
2022/09/26 00:18:25;;;;;;;7.18;3.78;;;11.90;99.90;;;;;;5024872;28;19925;-81
2022/09/26 00:20:51;;;;;;;5.20;3.53;;;11.90;99.90;;;;;;5024482;28;20041;-81
2022/09/26 00:23:17;;;;;;;6.95;4.15;;;12.00;99.90;;;;;;5004636;28;20060;-80
2022/09/26 00:25:47;;;;;;;6.97;4.00;;;12.00;99.90;;;;;;5024287;28;20038;-79
2022/09/26 00:28:13;;;;;;;6.13;3.60;;;11.90;99.90;;;;;;5007512;28;20132;-81
2022/09/26 00:30:39;;;;;;;6.38;3.53;;;12.00;99.90;;;;;;5024458;28;20048;-80
2022/09/26 00:33:05;;;;;;;8.00;3.67;;;11.90;99.90;;;;;;5025663;28;20466;-81
2022/09/26 00:35:31;;;;;;;6.53;3.70;;;11.90;99.90;;;;;;5023346;28;20167;-80
2022/09/26 00:37:56;;;;;;;7.07;3.60;;;11.90;99.90;;;;;;5023608;28;20092;-81
2022/09/26 00:40:26;;;;;;;5.13;3.45;;;12.00;99.90;;;;;;5008750;28;20076;-81
2022/09/26 00:42:53;;;;;;;5.30;3.60;;;11.90;99.90;;;;;;5022733;28;20493;-81
2022/09/26 00:45:20;;;;;;;5.25;3.58;;;11.90;99.90;;;;;;5007493;28;20084;-80
2022/09/26 00:47:58;;;;;;;6.70;3.72;;;11.90;99.90;;;;;;5022145;28;20072;-80
2022/09/26 00:50:50;;;;;;;5.78;3.45;;;11.90;99.90;;;;;;5009219;28;20049;-80
2022/09/26 00:53:20;;;;;;;5.25;3.78;;;11.90;99.90;;;;;;5020424;28;20450;-81
2022/09/26 00:55:59;;;;;;;6.13;4.00;;;11.90;99.90;;;;;;5018273;28;20492;-80
2022/09/26 00:58:37;;;;;;;6.55;3.53;;;11.90;99.90;;;;;;5005769;28;20117;-78
2022/09/26 01:01:02;;;;;;;8.52;4.15;;;11.90;99.90;;;;;;5022177;28;20041;-79
2022/09/26 01:03:30;;;;;;;6.28;3.75;;;11.90;99.90;;;;;;5004660;28;20381;-81
2022/09/26 01:05:58;;;;;;;7.35;4.38;;;11.80;99.90;;;;;;5001413;28;20041;-80
2022/09/26 01:08:35;;;;;;;9.13;4.25;;;11.80;99.90;;;;;;5023494;28;20041;-81
2022/09/26 01:11:02;;;;;;;6.78;3.90;;;11.90;99.90;;;;;;5006672;28;20049;-80
2022/09/26 01:13:31;;;;;;;7.22;3.80;;;11.80;99.90;;;;;;5006312;28;20047;-80
2022/09/26 01:15:57;;;;;;;6.90;4.05;;;11.80;99.90;;;;;;5018209;28;20489;-80
2022/09/26 01:18:23;;;;;;;6.93;3.67;;;11.80;99.90;;;;;;5026463;28;20103;-79
2022/09/26 01:20:58;;;;;;;5.63;3.70;;;11.80;99.90;;;;;;5025387;28;20108;-80
2022/09/26 01:23:57;;;;;;;7.00;3.85;;;11.80;99.90;;;;;;5027045;28;20045;-80
2022/09/26 01:26:54;;;;;;;10.50;4.00;;;11.80;99.90;;;;;;5013239;28;20042;-79
2022/09/26 01:29:54;;;;;;;6.00;3.58;;;11.80;99.90;;;;;;5012965;28;20087;-81
2022/09/26 01:32:51;;;;;;;9.20;3.60;;;11.80;99.90;;;;;;5020786;28;20083;-81
2022/09/26 01:35:30;;;;;;;6.32;3.50;;;11.70;99.90;;;;;;5025847;28;20053;-80
2022/09/26 01:38:19;;;;;;;6.22;3.40;;;11.70;99.90;;;;;;5030194;28;20133;-79
2022/09/26 01:40:44;;;;;;;10.07;3.50;;;11.70;99.90;;;;;;5011109;28;20481;-81
2022/09/26 01:43:19;;;;;;;4.90;2.95;;;11.70;99.90;;;;;;5025162;28;20045;-80
2022/09/26 01:45:53;;;;;;;5.20;3.17;;;11.70;99.90;;;;;;5007142;28;20488;-79
2022/09/26 01:48:33;;;;;;;8.35;3.08;;;11.70;99.90;;;;;;5022877;28;20046;-81
2022/09/26 01:51:18;;;;;;;5.18;3.20;;;11.70;99.90;;;;;;5003768;28;20037;-80
2022/09/26 01:53:54;;;;;;;5.18;3.10;;;11.70;99.90;;;;;;5022114;28;20045;-81
2022/09/26 01:56:23;;;;;;;5.30;3.10;;;11.70;99.90;;;;;;5005394;28;20045;-80
2022/09/26 01:58:58;;;;;;;5.03;2.97;;;11.70;99.90;;;;;;5024276;28;20046;-80
2022/09/26 02:01:28;;;;;;;7.90;3.28;;;11.70;99.90;;;;;;5002435;28;20503;-80
2022/09/26 02:03:59;;;;;;;8.48;3.70;;;11.70;99.90;;;;;;5024444;28;20532;-81
2022/09/26 02:06:38;;;;;;;6.80;3.63;;;11.70;99.90;;;;;;5024213;28;20154;-81
2022/09/26 02:09:09;;;;;;;7.70;3.97;;;11.70;99.90;;;;;;5020379;28;20117;-81
2022/09/26 02:11:39;;;;;;;7.65;3.53;;;11.70;99.90;;;;;;5018343;28;20049;-80
2022/09/26 02:14:12;;;;;;;6.95;3.88;;;11.70;99.90;;;;;;5021778;28;20108;-80
2022/09/26 02:17:05;;;;;;;5.68;3.80;;;11.70;99.90;;;;;;5021818;28;20712;-80
2022/09/26 02:19:45;;;;;;;8.30;4.18;;;11.70;99.90;;;;;;5005823;28;20127;-79
2022/09/26 02:22:10;;;;;;;6.45;4.20;;;11.70;99.90;;;;;;5021537;28;20167;-80
2022/09/26 02:24:36;;;;;;;7.95;4.13;;;11.70;99.90;;;;;;5006518;28;20061;-81
2022/09/26 02:27:03;;;;;;;8.48;4.60;;;11.80;99.90;;;;;;5019685;28;20037;-80
2022/09/26 02:29:28;;;;;;;7.72;4.47;;;11.70;99.90;;;;;;5024892;28;20085;-80
2022/09/26 02:32:04;;;;;;;8.63;4.38;;;11.80;99.90;;;;;;5021042;28;20365;-80
2022/09/26 02:34:30;;;;;;;8.18;4.72;;;11.80;99.90;;;;;;5004801;28;20060;-81
2022/09/26 02:36:58;;;;;;;8.30;4.63;;;11.80;99.90;;;;;;5017546;28;20492;-80
2022/09/26 02:39:24;;;;;;;10.57;4.88;;;11.80;99.90;;;;;;5026257;28;20160;-80
2022/09/26 02:41:56;;;;;;;6.05;4.85;;;11.80;99.90;;;;;;5021858;28;20469;-81
2022/09/26 02:44:28;;;;;;;8.32;5.03;;;11.80;99.90;;;;;;5020009;28;20484;-80
2022/09/26 02:47:12;;;;;;;10.00;5.43;;;11.80;99.90;;;;;;5016560;28;20091;-80
2022/09/26 02:49:44;;;;;;;10.25;6.20;;;11.80;99.90;;;;;;5023214;28;20519;-80
2022/09/26 02:52:55;;;;;;;7.47;5.63;;;11.80;99.90;;;;;;5024562;28;20064;-80
2022/09/26 02:55:25;;;;;;;7.03;5.72;;;11.80;99.90;;;;;;5016788;28;20120;-81
2022/09/26 02:58:35;;;;;;;8.27;6.05;;;11.80;99.90;;;;;;5020487;28;20472;-80
2022/09/26 03:01:05;;;;;;;9.05;6.30;;;11.80;99.90;;;;;;5003008;28;20849;-79
2022/09/26 03:03:36;;;;;;;8.57;5.82;;;11.80;99.90;;;;;;5020242;28;20048;-81
2022/09/26 03:06:07;;;;;;;13.45;6.20;;;11.80;99.90;;;;;;5023340;28;20041;-81
2022/09/26 03:08:38;;;;;;;12.38;6.68;;;11.80;99.90;;;;;;5023147;28;20133;-80
2022/09/26 03:11:06;;;;;;;7.82;6.05;;;11.80;99.90;;;;;;5005816;28;20176;-80
2022/09/26 03:13:38;;;;;;;10.13;6.78;;;11.80;99.90;;;;;;5021393;28;20412;-80
2022/09/26 03:16:05;;;;;;;7.60;6.07;;;11.90;99.90;;;;;;5029068;28;20041;-80
2022/09/26 03:18:53;;;;;;;9.98;6.97;;;11.90;99.90;;;;;;5003742;28;20045;-80
2022/09/26 03:21:19;;;;;;;11.52;6.88;;;11.80;99.90;;;;;;5005821;28;20042;-80
2022/09/26 03:23:45;;;;;;;9.48;7.00;;;11.80;99.90;;;;;;5002992;28;20480;-80
2022/09/26 03:26:18;;;;;;;9.00;7.15;;;11.80;99.90;;;;;;5022420;28;20124;-80
2022/09/26 03:28:44;;;;;;;9.73;7.20;;;11.90;99.90;;;;;;5021860;28;20077;-80
2022/09/26 03:31:10;;;;;;;12.20;7.13;;;11.90;99.90;;;;;;5019165;28;20061;-81
2022/09/26 03:33:36;;;;;;;11.50;7.50;;;11.80;99.90;;;;;;5001051;28;20050;-83
2022/09/26 03:36:08;;;;;;;11.38;7.32;;;11.80;99.90;;;;;;5024444;28;20124;-82
2022/09/26 03:38:34;;;;;;;10.85;7.53;;;11.90;99.90;;;;;;5006623;28;20049;-82
2022/09/26 03:41:01;;;;;;;11.80;7.70;;;11.80;99.90;;;;;;5007894;28;20091;-82
2022/09/26 03:43:27;;;;;;;11.98;8.02;;;11.80;99.90;;;;;;5004988;28;20049;-81
2022/09/26 03:45:53;;;;;;;9.88;7.28;;;11.80;99.90;;;;;;5015955;28;20045;-81
2022/09/26 03:48:20;;;;;;;10.05;7.65;;;11.80;99.90;;;;;;5003089;28;20074;-81
2022/09/26 03:50:46;;;;;;;12.13;7.75;;;11.80;99.90;;;;;;5027158;28;20392;-81
2022/09/26 03:53:12;;;;;;;10.82;7.32;;;11.80;99.90;;;;;;5026216;28;20084;-82
2022/09/26 03:55:38;;;;;;;8.23;7.13;;;11.80;99.90;;;;;;5026842;28;20052;-81
2022/09/26 03:58:04;;;;;;;10.00;7.80;;;11.80;99.90;;;;;;5006857;28;20041;-81
2022/09/26 04:00:30;;;;;;;11.48;8.23;;;11.70;99.90;;;;;;5026048;28;20580;-82
2022/09/26 04:02:58;;;;;;;10.80;8.23;;;11.70;99.90;;;;;;5022069;28;20100;-82
2022/09/26 04:05:24;;;;;;;12.15;8.68;;;11.70;99.90;;;;;;5017511;28;20083;-82
2022/09/26 04:07:49;;;;;;;14.18;9.05;;;11.70;99.90;;;;;;5021793;28;20088;-81
2022/09/26 04:10:15;;;;;;;10.90;9.05;;;11.70;99.90;;;;;;5027912;28;20045;-81
2022/09/26 04:12:44;;;;;;;11.43;8.73;;;11.70;99.90;;;;;;5022811;28;20033;-81
2022/09/26 04:15:10;;;;;;;13.38;9.05;;;11.70;99.90;;;;;;5005203;28;20046;-82
2022/09/26 04:17:39;;;;;;;11.32;9.68;;;11.70;99.90;;;;;;5004028;28;20049;-81
2022/09/26 04:20:05;;;;;;;11.63;9.68;;;11.70;99.90;;;;;;5008058;28;20103;-81
2022/09/26 04:22:31;;;;;;;11.45;10.02;;;11.70;99.90;;;;;;5008522;28;20049;-82
2022/09/26 04:25:00;;;;;;;12.45;10.43;;;11.70;99.90;;;;;;5026393;28;20041;-79
2022/09/26 04:27:29;;;;;;;13.80;11.27;;;11.70;99.90;;;;;;5004487;28;20041;-80
2022/09/26 04:29:56;;;;;;;13.25;10.95;;;11.70;99.90;;;;;;5007281;28;20463;-79
2022/09/26 04:32:23;;;;;;;14.77;10.77;;;11.70;99.90;;;;;;5004482;28;20049;-80
2022/09/26 04:34:48;;;;;;;15.02;12.27;;;11.70;99.90;;;;;;5026537;28;20065;-80
2022/09/26 04:37:15;;;;;;;13.60;12.02;;;11.70;99.90;;;;;;5026679;28;20325;-80
2022/09/26 04:39:40;;;;;;;19.50;13.40;;;11.60;99.90;;;;;;5013997;28;20064;-80
2022/09/26 04:42:06;;;;;;;15.75;12.57;;;11.60;99.90;;;;;;5009560;28;20050;-80
2022/09/26 04:44:32;;;;;;;16.25;12.93;;;11.60;99.90;;;;;;5022000;28;20045;-80
2022/09/26 04:46:58;;;;;;;15.50;12.32;;;11.60;99.90;;;;;;5022439;28;20091;-80
2022/09/26 04:49:24;;;;;;;16.98;13.48;;;11.60;99.90;;;;;;5023254;28;20408;-80
2022/09/26 04:51:50;;;;;;;15.63;12.55;;;11.60;99.90;;;;;;5007244;28;20045;-80
2022/09/26 04:54:16;;;;;;;15.68;12.63;;;11.50;99.90;;;;;;5024535;28;20502;-80
2022/09/26 04:56:42;;;;;;;16.48;13.35;;;11.60;99.90;;;;;;5012599;28;20437;-80
2022/09/26 04:59:08;;;;;;;13.68;12.32;;;11.50;99.90;;;;;;5022271;28;20068;-80
2022/09/26 05:01:33;;;;;;;14.48;12.98;;;11.60;99.90;;;;;;5025003;28;20038;-79
2022/09/26 05:03:59;;;;;;;13.57;12.18;;;11.60;99.90;;;;;;5023544;28;20069;-79
2022/09/26 05:06:25;;;;;;;15.30;12.65;;;11.50;99.90;;;;;;5022921;28;20665;-80
2022/09/26 05:08:51;;;;;;;15.73;13.40;;;11.50;99.90;;;;;;5022813;28;20072;-80
2022/09/26 05:11:20;;;;;;;15.18;12.60;;;11.50;99.90;;;;;;5024257;28;20038;-80
2022/09/26 05:13:47;;;;;;;16.35;12.65;;;11.50;99.90;;;;;;5023615;28;20076;-80
2022/09/26 05:16:13;;;;;;;15.13;13.63;;;11.50;99.90;;;;;;5022608;28;20088;-80
2022/09/26 05:18:39;;;;;;;14.95;12.98;;;11.50;99.90;;;;;;5006267;28;20117;-79
2022/09/26 05:21:06;;;;;;;13.48;11.95;;;11.50;99.90;;;;;;5006102;28;20052;-80
2022/09/26 05:26:21;;;;;;;13.15;11.85;;;11.50;99.90;;;;;;5021744;28;20049;-80
2022/09/26 05:29:03;;;;;;;12.10;10.88;;;11.50;99.90;;;;;;5021830;28;20041;-80
2022/09/26 05:31:32;;;;;;;12.57;11.27;;;11.50;99.90;;;;;;5024122;28;20128;-81
2022/09/26 05:33:58;;;;;;;13.45;11.05;;;11.50;99.90;;;;;;5014003;28;20046;-80
2022/09/26 05:36:27;;;;;;;12.77;11.43;;;11.50;99.90;;;;;;5022679;28;20099;-80
2022/09/26 05:38:53;;;;;;;12.00;10.68;;;11.50;99.90;;;;;;5022997;28;20056;-80
2022/09/26 05:41:19;;;;;;;12.18;10.40;;;11.50;99.90;;;;;;5022575;28;20033;-80
2022/09/26 05:43:46;;;;;;;12.27;10.18;;;11.50;99.90;;;;;;5016713;28;20099;-80
2022/09/26 05:46:13;;;;;;;11.50;9.88;;;11.50;99.90;;;;;;4998789;28;20049;-80
2022/09/26 05:48:40;;;;;;;11.32;9.93;;;11.50;99.90;;;;;;5021777;28;20040;-79
2022/09/26 05:51:16;;;;;;;16.95;10.07;;;11.50;99.90;;;;;;5006166;28;20072;-79
2022/09/26 05:53:44;;;;;;;11.77;9.60;;;11.50;99.90;;;;;;5013552;28;20049;-78
2022/09/26 05:56:11;;;;;;;13.43;9.63;;;11.50;99.90;;;;;;5025690;28;20418;-78
2022/09/26 05:58:39;;;;;;;10.45;9.30;;;11.50;99.90;;;;;;5030738;22;20595;-80
2022/09/26 06:01:11;;;;;;;13.32;9.02;;;11.50;99.90;;;;;;5003781;28;20069;-79
2022/09/26 06:03:41;;;;;;;14.40;9.40;;;11.50;99.90;;;;;;5019712;28;20461;-79
2022/09/26 06:06:17;;;;;;;11.60;8.65;;;11.50;99.90;;;;;;5028189;28;20037;-79
2022/09/26 06:08:44;;;;;;;10.50;8.85;;;11.60;99.90;;;;;;5025846;28;20128;-79
2022/09/26 06:11:15;;;;;;;10.68;8.73;;;11.60;99.90;;;;;;5025383;28;20048;-76
2022/09/26 06:13:44;;;;;;;11.02;8.82;;;11.50;99.90;;;;;;5023027;28;20059;-78
2022/09/26 06:16:17;;;;;;;13.57;8.98;;;11.50;99.90;;;;;;5028656;28;20048;-79
2022/09/26 06:18:43;;;;;;;10.43;8.80;;;11.60;99.90;;;;;;5036746;28;20556;-77
2022/09/26 06:21:11;;;;;;;13.48;8.45;;;11.60;99.90;;;;;;5016636;28;20046;-77
2022/09/26 06:23:38;;;;;;;9.63;7.95;;;11.60;99.90;;;;;;5005673;28;20046;-80
2022/09/26 06:26:07;;;;;;;10.98;7.90;;;11.60;99.90;;;;;;5018005;28;20127;-78
2022/09/26 06:28:37;;;;;;;9.90;8.07;;;11.60;99.90;;;;;;5016123;28;20121;-80
2022/09/26 06:31:14;;;;;;;11.38;7.60;;;11.60;99.90;;;;;;5027714;28;20060;-80
2022/09/26 06:33:40;;;;;;;9.85;7.40;;;11.60;99.90;;;;;;5033790;28;20083;-78
2022/09/26 06:36:08;;;;;;;10.13;7.50;;;11.60;99.90;;;;;;5008356;28;20077;-78
2022/09/26 06:38:35;;;;;;;9.10;7.15;;;11.60;99.90;;;;;;5029613;28;20124;-78
2022/09/26 06:41:20;;;;;;;10.73;7.68;;;11.60;99.90;;;;;;5025686;28;20040;-78
2022/09/26 06:43:46;;;;;;;10.57;8.75;;;11.70;99.90;;;;;;5011655;28;20064;-79
2022/09/26 06:46:13;;;;;;;11.95;8.77;;;11.60;99.90;;;;;;5014414;28;20110;-77
2022/09/26 06:48:39;;;;;;;10.57;7.30;;;11.60;99.90;;;;;;5007238;28;20049;-78
2022/09/26 06:51:06;;;;;;;8.48;6.70;;;11.60;99.90;;;;;;5025411;28;20047;-77
2022/09/26 06:53:33;;;;;;;8.70;6.63;;;11.60;99.90;;;;;;5029705;28;20037;-78
2022/09/26 06:56:03;;;;;;;8.50;6.63;;;11.60;99.90;;;;;;5007756;28;20050;-77
2022/09/26 06:58:33;;;;;;;9.50;6.28;;;11.60;99.90;;;;;;5026724;28;20057;-77
2022/09/26 07:00:58;;;;;;;10.52;6.47;;;11.60;99.90;;;;;;5026226;28;20132;-77
2022/09/26 07:03:25;;;;;;;9.30;6.13;;;11.70;99.90;;;;;;5010333;28;20087;-79
2022/09/26 07:05:56;;;;;;;6.85;5.82;;;11.60;99.90;;;;;;5023545;28;20042;-76
2022/09/26 07:08:22;;;;;;;8.15;5.85;;;11.60;99.90;;;;;;4997096;28;20389;-83
2022/09/26 07:10:48;;;;;;;9.70;7.85;;;11.60;99.90;;;;;;5002471;28;20501;-80
2022/09/26 07:13:15;;;;;;;8.35;6.45;;;11.60;99.90;;;;;;5032498;28;20045;-80
2022/09/26 07:15:45;;;;;;;;;;;11.70;99.90;;;;;;5012745;28;20050;-82
2022/09/26 07:18:12;;;;;;;8.15;5.40;;;11.60;99.90;;;;;;5012913;28;20011;-83
2022/09/26 07:20:39;;;;;;;9.82;6.28;;;11.60;99.90;;;;;;5029659;28;20073;-82
2022/09/26 07:23:10;;;;;;;6.65;5.22;;;11.60;99.90;;;;;;5035739;28;20101;-81
2022/09/26 07:25:38;;;;;;;8.63;5.28;;;11.70;99.90;;;;;;5014327;28;20373;-80
2022/09/26 07:28:06;;;;;;;7.80;5.10;;;11.70;99.90;;;;;;5013110;28;20067;-78
2022/09/26 07:30:34;;;;;;;7.95;5.25;;;11.70;99.90;;;;;;5030138;28;20050;-81
2022/09/26 07:33:02;;;;;;;6.82;4.70;;;11.70;99.90;;;;;;5022875;28;20204;-81
2022/09/26 07:35:56;;;;;;;7.70;4.95;;;11.70;99.90;;;;;;5030833;28;20077;-81
2022/09/26 07:38:24;;;;;;;8.32;4.70;;;11.80;99.90;;;;;;5017253;28;20465;-79
2022/09/26 07:40:53;;;;;;;8.38;5.13;;;11.80;99.90;;;;;;5028846;28;20045;-80
2022/09/26 07:43:22;;;;;;;7.65;4.72;;;11.80;99.90;;;;;;5022081;28;20107;-80
2022/09/26 07:51:21;;;;;;;9.95;4.53;;;11.80;99.90;;;;;;5010563;28;20064;-77
2022/09/26 07:53:47;;;;;;;6.28;4.78;;;11.80;99.90;;;;;;5029623;28;20134;-77
2022/09/26 07:56:13;;;;;;;8.50;4.28;;;11.90;99.90;;;;;;5029466;28;20065;-79
2022/09/26 07:58:40;;;;;;;8.07;4.90;;;11.90;99.90;;;;;;5009166;28;20060;-80
2022/09/26 08:01:10;;;;;;;8.77;4.88;;;11.90;99.90;;;;;;5024942;28;20068;-80
2022/09/26 08:03:40;;;;;;;8.30;4.68;;;12.00;99.90;;;;;;4987214;28;20049;-78
2022/09/26 08:06:08;;;;;;;8.15;4.30;;;12.00;99.90;;;;;;5008972;28;20053;-76
2022/09/26 08:08:44;;;;;;;7.57;4.50;;;12.00;99.90;;;;;;5022622;28;20042;-78
2022/09/26 08:11:15;;;;;;;7.00;4.65;;;12.00;99.90;;;;;;5019890;28;20088;-80
2022/09/26 08:13:51;;;;;;;7.78;5.32;;;12.00;99.90;;;;;;5027973;28;20042;-82
2022/09/26 08:16:25;;;;;;;8.00;5.15;;;12.00;99.90;;;;;;5009838;28;20042;-79
2022/09/26 08:18:52;;;;;;;9.15;5.15;;;12.00;99.90;;;;;;5034785;28;20119;-82
2022/09/26 08:21:20;;;;;;;8.18;5.18;;;12.00;99.90;;;;;;5009698;28;20483;-81
2022/09/26 08:23:49;;;;;;;9.20;5.43;;;11.90;99.90;;;;;;5018669;28;20429;-81
2022/09/26 08:26:15;;;;;;;7.80;4.90;;;12.00;99.90;;;;;;5026291;28;20127;-78
2022/09/26 08:28:53;;;;;;;7.95;5.00;;;11.90;99.90;;;;;;5027401;28;20103;-86
2022/09/26 08:31:19;;;;;;;7.68;5.00;;;12.00;99.90;;;;;;5027116;28;20041;-76
2022/09/26 08:33:46;;;;;;;6.22;4.55;;;11.90;99.90;;;;;;5029374;28;20049;-79
2022/09/26 08:36:16;;;;;;;8.63;5.10;;;12.00;99.90;;;;;;5029387;28;20545;-77
2022/09/26 08:38:42;;;;;;;17.85;11.15;;;12.00;99.90;;;;;;5027567;28;20056;-77
2022/09/26 08:41:18;;;;;;;9.10;6.47;;;12.00;99.90;;;;;;5007496;28;20045;-78
2022/09/26 08:43:50;;;;;;;11.35;5.60;;;12.00;99.90;;;;;;5026921;28;20045;-78
2022/09/26 08:46:53;;;;;;;10.32;5.03;;;12.10;99.90;;;;;;5006736;28;20061;-77
2022/09/26 08:49:46;;;;;;;8.02;5.20;;;12.10;99.90;;;;;;5020483;28;20045;-77
2022/09/26 08:52:21;;;;;;;10.55;5.53;;;12.30;99.90;;;;;;5004333;28;20050;-77
2022/09/26 08:54:48;;;;;;;10.20;5.75;;;12.30;99.90;;;;;;5003141;28;20057;-77
2022/09/26 08:57:25;;;;;;;9.77;5.50;;;12.40;99.90;;;;;;5001403;28;20061;-76
2022/09/26 08:59:53;;;;;;;7.13;5.00;;;12.50;99.90;;;;;;5020975;28;20102;-77
2022/09/26 09:02:32;;;;;;;9.00;5.47;;;12.50;99.90;;;;;;5003126;28;20080;-77
2022/09/26 09:05:00;;;;;;;7.28;5.15;;;12.60;99.90;;;;;;5002058;28;20147;-76
2022/09/26 09:07:26;;;;;;;10.85;5.30;;;12.60;99.90;;;;;;5022490;28;20447;-76
2022/09/26 09:10:09;;;;;;;11.70;6.13;;;12.70;99.90;;;;;;5003305;28;20057;-77
2022/09/26 09:12:44;;;;;;;10.43;4.97;;;12.70;99.90;;;;;;5018418;28;20049;-80
2022/09/26 09:15:30;;;;;;;9.05;5.28;;;12.70;99.90;;;;;;4997235;28;20492;-78
2022/09/26 09:18:21;;;;;;;9.68;5.03;;;12.70;99.90;;;;;;4984492;28;20057;-79
2022/09/26 09:21:01;;;;;;;9.65;4.80;;;12.70;99.90;;;;;;4985448;28;20172;-81
2022/09/26 09:24:00;;;;;;;7.28;5.00;;;12.60;99.90;;;;;;5019521;28;20068;-84
2022/09/26 09:26:56;;;;;;;8.23;4.97;;;12.60;99.90;;;;;;5032359;28;20052;-82
2022/09/26 09:29:42;;;;;;;10.45;5.25;;;12.60;99.90;;;;;;5014401;28;20077;-79
2022/09/26 09:32:15;;;;;;;10.23;5.10;;;12.60;99.90;;;;;;5024378;28;20497;-77
2022/09/26 09:34:44;;;;;;;8.90;5.60;;;12.60;99.90;;;;;;5027135;28;20030;-79
2022/09/26 09:37:20;;;;;;;11.20;5.80;;;12.70;99.90;;;;;;4995824;28;20489;-81
2022/09/26 09:39:48;;;;;;;9.32;6.25;;;12.70;99.90;;;;;;5023045;28;21642;-76
2022/09/26 09:42:25;;;;;;;9.15;5.10;;;12.70;99.90;;;;;;5027036;28;20041;-76
2022/09/26 09:44:54;;;;;;;;;;;12.70;99.90;;;;;;5007937;28;20057;-76
2022/09/26 09:47:20;;;;;;;10.20;5.30;;;12.70;99.90;;;;;;5007046;28;19936;-76
2022/09/26 09:49:48;;;;;;;8.98;5.10;;;12.70;99.90;;;;;;5022228;28;20049;-78
2022/09/26 09:52:32;;;;;;;;;;;12.70;99.90;;;;;;4999587;28;20101;-77
2022/09/26 09:55:37;;;;;;;7.68;5.30;;;12.70;99.90;;;;;;5000290;28;19921;-85
2022/09/26 09:58:10;;;;;;;9.57;5.30;;;12.70;99.90;;;;;;5013434;28;20060;-81
2022/09/26 10:00:46;;;;;;;9.82;5.40;;;12.60;99.90;;;;;;5025571;28;20136;-80
2022/09/26 10:03:24;;;;;;;11.07;5.15;;;12.60;99.90;;;;;;5023293;28;20092;-80
2022/09/26 10:05:56;;;;;;;9.85;5.20;;;12.60;99.90;;;;;;5025931;28;20064;-77
2022/09/26 10:08:35;;;;;;;10.50;5.40;;;12.60;99.90;;;;;;5025501;28;20044;-77
2022/09/26 10:11:10;;;;;;;9.13;5.68;;;12.60;99.90;;;;;;5005630;28;20057;-82
2022/09/26 10:13:41;;;;;;;8.75;5.70;;;12.50;99.90;;;;;;5007595;28;20051;-81
2022/09/26 10:16:13;;;;;;;9.18;5.63;;;12.50;99.90;;;;;;5025920;28;20045;-82
2022/09/26 10:19:11;;;;;;;10.05;6.20;;;12.50;99.90;;;;;;5006771;28;20037;-81
2022/09/26 10:21:39;;;;;;;10.05;5.32;;;12.40;99.90;;;;;;5020155;28;20149;-81
2022/09/26 10:24:21;;;;;;;8.80;5.45;;;12.40;99.90;;;;;;5017143;28;20141;-87
2022/09/26 10:26:49;;;;;;;12.60;5.63;;;12.40;99.90;;;;;;5017298;28;20053;-81
2022/09/26 10:29:32;;;;;;;11.02;6.78;;;12.40;99.90;;;;;;5023221;28;20045;-81
2022/09/26 10:32:02;;;;;;;9.13;5.28;;;12.40;99.90;;;;;;5011928;28;20041;-77
2022/09/26 10:34:30;;;;;;;11.43;5.57;;;12.40;99.90;;;;;;5005749;28;20128;-80
2022/09/26 10:36:57;;;;;;;12.25;8.43;;;12.40;99.90;;;;;;5025411;28;20052;-81
2022/09/26 10:42:19;;;;;;;12.85;7.63;;;12.40;99.90;;;;;;5005319;28;20452;-78
2022/09/26 10:44:47;;;;;;;11.73;7.50;;;12.30;99.90;;;;;;5004988;28;20049;-78
2022/09/26 10:47:16;;;;;;;10.77;8.10;;;12.30;99.90;;;;;;4993099;28;20053;-78
2022/09/26 10:50:11;;;;;;;10.80;7.00;;;12.30;99.90;;;;;;5024980;28;20546;-78
2022/09/26 10:52:48;;;;;;;11.40;7.20;;;12.40;99.90;;;;;;5014711;28;20046;-77
2022/09/26 10:55:24;;;;;;;;;;;12.40;99.90;;;;;;5025648;28;20049;-78
2022/09/26 10:57:57;;;;;;;12.73;6.72;;;12.40;99.90;;;;;;5025041;28;19921;-78
2022/09/26 11:00:43;;;;;;;8.68;5.85;;;12.40;99.90;;;;;;5003798;28;20049;-78
2022/09/26 11:03:14;;;;;;;7.68;5.72;;;12.40;99.90;;;;;;5022866;28;20045;-77
2022/09/26 11:05:55;;;;;;;10.35;6.30;;;12.40;99.90;;;;;;5008308;28;20052;-76
2022/09/26 11:08:28;;;;;;;9.32;6.68;;;12.40;99.90;;;;;;5025266;28;20116;-79
2022/09/26 11:10:57;;;;;;;12.52;6.50;;;12.50;99.90;;;;;;5023907;28;20509;-79
2022/09/26 11:13:25;;;;;;;9.02;7.38;;;12.50;99.90;;;;;;5022055;28;20100;-79
2022/09/26 11:16:07;;;;;;;11.35;7.20;;;12.50;99.90;;;;;;5018949;28;20120;-79
2022/09/26 11:18:52;;;;;;;8.52;6.75;;;12.50;99.90;;;;;;5003597;28;20132;-80
2022/09/26 11:21:46;;;;;;;9.30;5.97;;;12.50;99.90;;;;;;5022160;28;20091;-77
2022/09/26 11:24:53;;;;;;;9.52;7.40;;;12.50;99.90;;;;;;5011634;28;20060;-78
2022/09/26 11:27:44;;;;;;;8.80;6.65;;;12.50;99.90;;;;;;5025197;28;20063;-77
2022/09/26 11:30:18;;;;;;;8.63;6.43;;;12.50;99.90;;;;;;5006211;28;20125;-77
2022/09/26 11:32:48;;;;;;;9.82;7.82;;;12.50;99.90;;;;;;5007414;28;20057;-78
2022/09/26 11:35:32;;;;;;;9.45;8.18;;;12.50;99.90;;;;;;5005398;28;20037;-75
2022/09/26 11:38:09;;;;;;;10.40;7.22;;;12.50;99.90;;;;;;5022569;28;20409;-77
2022/09/26 11:40:58;;;;;;;43.70;33.85;;;12.50;99.90;;;;;;5022238;28;20037;-76
2022/09/26 11:43:24;;;;;;;40.22;27.70;;;12.50;99.90;;;;;;4960110;28;20061;-78
2022/09/26 11:46:13;;;;;;;77.50;51.60;;;12.40;99.90;;;;;;5006679;28;20045;-78
2022/09/26 11:49:16;;;;;;;53.55;31.52;;;12.50;99.90;;;;;;5002790;28;20148;-78
2022/09/26 11:52:01;;;;;;;27.05;20.13;;;12.50;99.90;;;;;;5021424;28;20050;-77
2022/09/26 11:54:45;;;;;;;12.85;8.88;;;12.50;99.90;;;;;;5006898;28;20107;-77
2022/09/26 11:57:32;;;;;;;39.38;28.85;;;12.50;99.90;;;;;;5017442;28;20545;-78
2022/09/26 12:00:26;;;;;;;30.27;21.52;;;12.50;99.90;;;;;;5005348;28;20382;-77
2022/09/26 12:03:07;;;;;;;32.42;27.88;;;12.50;99.90;;;;;;5019451;28;20045;-76
2022/09/26 12:05:38;;;;;;;15.73;13.63;;;12.50;99.90;;;;;;5008082;28;20091;-77
2022/09/26 12:08:20;;;;;;;29.10;23.70;;;12.50;99.90;;;;;;5019745;28;20328;-74
2022/09/26 12:10:49;;;;;;;20.75;18.55;;;12.50;99.90;;;;;;5007989;28;20049;-77
2022/09/26 12:13:56;;;;;;;15.00;13.50;;;12.50;99.90;;;;;;5024393;28;20065;-77
2022/09/26 12:16:50;;;;;;;12.23;10.93;;;12.50;99.90;;;;;;5021221;28;20072;-75
2022/09/26 12:19:19;;;;;;;9.68;7.10;;;12.60;99.90;;;;;;5026765;28;20103;-76
2022/09/26 12:22:30;;;;;;;9.30;6.57;;;12.60;99.90;;;;;;5025062;28;20279;-78
2022/09/26 12:25:06;;;;;;;7.10;5.75;;;12.60;99.90;;;;;;5019355;28;20065;-75
2022/09/26 12:27:51;;;;;;;7.43;5.57;;;12.60;99.90;;;;;;5025865;28;20037;-73
2022/09/26 12:30:52;;;;;;;6.57;5.43;;;12.60;99.90;;;;;;5014155;28;20156;-74
2022/09/26 12:33:33;;;;;;;7.07;5.20;;;12.60;99.90;;;;;;4965471;28;20061;-77
2022/09/26 12:36:23;;;;;;;11.18;7.95;;;12.60;99.90;;;;;;5008497;28;20581;-76
2022/09/26 12:39:39;;;;;;;9.73;7.32;;;12.60;99.90;;;;;;5014051;28;20053;-76
2022/09/26 12:42:26;;;;;;;5.65;4.85;;;12.60;99.90;;;;;;4990866;28;20053;-76
2022/09/26 12:45:15;;;;;;;5.03;4.15;;;12.60;99.90;;;;;;5026533;28;20045;-77
2022/09/26 12:48:06;;;;;;;5.90;4.32;;;12.60;99.90;;;;;;5007573;28;20111;-76
2022/09/26 12:50:56;;;;;;;7.93;4.53;;;12.60;99.90;;;;;;5014947;28;20057;-76
2022/09/26 12:53:52;;;;;;;5.95;4.78;;;12.60;99.90;;;;;;5007562;28;20050;-76
2022/09/26 12:56:19;;;;;;;6.40;4.90;;;12.60;99.90;;;;;;5016114;28;21065;-76
2022/09/26 12:58:54;;;;;;;5.28;4.18;;;12.60;99.90;;;;;;4994856;28;20049;-76
2022/09/26 13:01:47;;;;;;;5.13;4.07;;;12.60;99.90;;;;;;5006252;28;20064;-76
2022/09/26 13:04:22;;;;;;;9.30;8.40;;;12.60;99.90;;;;;;4998313;28;20053;-78
2022/09/26 13:07:19;;;;;;;7.47;5.22;;;12.60;99.90;;;;;;5005712;28;20073;-76
2022/09/26 13:09:44;;;;;;;5.47;4.47;;;12.60;99.90;;;;;;4968540;28;20049;-76
2022/09/26 13:12:30;;;;;;;4.35;3.88;;;12.70;99.90;;;;;;5024919;28;20475;-76
2022/09/26 13:15:27;;;;;;;5.93;4.40;;;12.70;99.90;;;;;;5024747;28;20069;-76
2022/09/26 13:17:59;;;;;;;6.60;4.25;;;12.70;99.90;;;;;;5027372;28;20393;-74
2022/09/26 13:20:37;;;;;;;6.55;5.20;;;12.70;99.90;;;;;;5027770;28;20033;-76
2022/09/26 13:23:18;;;;;;;4.57;3.90;;;12.70;99.90;;;;;;5008908;28;20102;-76
2022/09/26 13:25:56;;;;;;;5.10;3.83;;;12.70;99.90;;;;;;5025259;28;20041;-76
2022/09/26 13:28:23;;;;;;;3.13;2.80;;;12.70;99.90;;;;;;5027219;28;20037;-77